createdAt,value
2022-11-16T00:01:24.199Z,95.36
2022-11-16T00:03:52.756Z,95.38
2022-11-16T00:06:20.872Z,96.29
2022-11-16T00:09:10.140Z,97.05
2022-11-16T00:11:38.267Z,97.75
2022-11-16T00:14:05.915Z,97.53
2022-11-16T00:16:33.266Z,98.24
2022-11-16T00:19:03.359Z,98.59
2022-11-16T00:21:30.985Z,98.26
2022-11-16T00:23:57.843Z,98.69
2022-11-16T00:26:24.981Z,98.97
2022-11-16T00:28:55.241Z,99.10
2022-11-16T00:31:22.535Z,98.82
2022-11-16T00:33:49.732Z,98.55
2022-11-16T00:36:16.653Z,98.42
2022-11-16T00:38:43.536Z,98.70
2022-11-16T00:41:10.531Z,99.46
2022-11-16T00:43:37.561Z,98.97
2022-11-16T00:46:04.444Z,99.82
2022-11-16T00:48:31.541Z,99.71
2022-11-16T00:50:58.381Z,99.69
2022-11-16T00:53:24.962Z,99.66
2022-11-16T00:55:51.503Z,100.00
2022-11-16T00:58:18.100Z,99.99
2022-11-16T01:00:44.711Z,99.78
2022-11-16T01:03:11.981Z,100.00
2022-11-16T01:05:39.077Z,100.00
2022-11-16T01:08:06.424Z,100.00
2022-11-16T01:10:33.250Z,100.00
2022-11-16T01:12:59.839Z,100.00
2022-11-16T01:15:27.717Z,100.00
2022-11-16T01:17:56.017Z,100.00
2022-11-16T01:20:26.243Z,100.00
2022-11-16T01:22:53.325Z,100.00
2022-11-16T01:25:21.173Z,100.00
2022-11-16T01:27:47.991Z,100.00
2022-11-16T01:30:15.487Z,100.00
2022-11-16T01:32:42.216Z,100.00
2022-11-16T01:35:10.278Z,100.00
2022-11-16T01:37:36.990Z,100.00
2022-11-16T01:40:04.055Z,100.00
2022-11-16T01:42:32.026Z,100.00
2022-11-16T01:45:03.829Z,100.00
2022-11-16T01:47:31.178Z,100.00
2022-11-16T01:50:14.607Z,100.00
2022-11-16T01:52:57.302Z,100.00
2022-11-16T01:55:25.118Z,100.00
2022-11-16T01:57:51.740Z,100.00
2022-11-16T02:00:18.709Z,100.00
2022-11-16T02:02:45.462Z,100.00
2022-11-16T02:05:16.493Z,100.00
2022-11-16T02:08:21.465Z,100.00
2022-11-16T02:10:47.999Z,100.00
2022-11-16T02:13:28.397Z,100.00
2022-11-16T02:16:00.029Z,100.00
2022-11-16T02:18:31.881Z,100.00
2022-11-16T02:21:06.404Z,100.00
2022-11-16T02:23:51.811Z,100.00
2022-11-16T02:26:37.218Z,100.00
2022-11-16T02:29:34.461Z,100.00
2022-11-16T02:32:16.370Z,100.00
2022-11-16T02:34:49.395Z,100.00
2022-11-16T02:37:20.677Z,100.00
2022-11-16T02:39:52.729Z,100.00
2022-11-16T02:42:27.969Z,100.00
2022-11-16T02:44:55.766Z,100.00
2022-11-16T02:47:27.281Z,100.00
2022-11-16T02:50:00.450Z,100.00
2022-11-16T02:52:28.795Z,100.00
2022-11-16T02:54:55.752Z,100.00
2022-11-16T02:57:39.372Z,100.00
2022-11-16T03:00:08.765Z,100.00
2022-11-16T03:02:43.812Z,100.00
2022-11-16T03:05:16.304Z,100.00
2022-11-16T03:08:00.322Z,100.00
2022-11-16T03:10:45.455Z,100.00
2022-11-16T03:13:16.594Z,100.00
2022-11-16T03:15:44.311Z,100.00
2022-11-16T03:18:16.078Z,100.00
2022-11-16T03:20:44.328Z,100.00
2022-11-16T03:23:12.849Z,100.00
2022-11-16T03:25:52.814Z,100.00
2022-11-16T03:28:31.755Z,100.00
2022-11-16T03:31:07.956Z,100.00
2022-11-16T03:33:43.127Z,100.00
2022-11-16T03:36:34.346Z,100.00
2022-11-16T03:39:06.909Z,100.00
2022-11-16T03:41:36.729Z,100.00
2022-11-16T03:44:04.910Z,100.00
2022-11-16T03:46:31.780Z,100.00
2022-11-16T03:48:59.678Z,100.00
2022-11-16T03:51:26.585Z,100.00
2022-11-16T03:53:53.200Z,100.00
2022-11-16T03:56:20.245Z,100.00
2022-11-16T03:58:46.962Z,100.00
2022-11-16T04:01:13.615Z,100.00
2022-11-16T04:03:40.330Z,100.00
2022-11-16T04:06:25.861Z,100.00
2022-11-16T04:09:11.160Z,100.00
2022-11-16T04:11:56.688Z,100.00
2022-11-16T04:14:43.180Z,100.00
2022-11-16T04:17:32.480Z,100.00
2022-11-16T04:20:17.980Z,100.00
2022-11-16T04:23:14.351Z,100.00
2022-11-16T04:25:43.802Z,100.00
2022-11-16T04:28:13.663Z,100.00
2022-11-16T04:31:11.063Z,100.00
2022-11-16T04:33:56.407Z,100.00
2022-11-16T04:36:41.779Z,100.00
2022-11-16T04:39:08.888Z,100.00
2022-11-16T04:41:54.454Z,100.00
2022-11-16T04:44:24.688Z,100.00
2022-11-16T04:47:08.702Z,100.00
2022-11-16T04:49:35.320Z,100.00
2022-11-16T04:52:01.914Z,100.00
2022-11-16T04:54:28.547Z,100.00
2022-11-16T04:56:55.132Z,100.00
2022-11-16T04:59:21.712Z,100.00
2022-11-16T05:02:06.933Z,100.00
2022-11-16T05:04:33.660Z,100.00
2022-11-16T05:07:00.438Z,100.00
2022-11-16T05:09:27.037Z,100.00
2022-11-16T05:11:53.607Z,100.00
2022-11-16T05:14:20.284Z,100.00
2022-11-16T05:16:46.889Z,100.00
2022-11-16T05:19:32.028Z,100.00
2022-11-16T05:21:58.551Z,100.00
2022-11-16T05:24:34.034Z,100.00
2022-11-16T05:27:08.880Z,100.00
2022-11-16T05:29:36.310Z,100.00
2022-11-16T05:32:04.024Z,100.00
2022-11-16T05:34:30.823Z,100.00
2022-11-16T05:36:57.610Z,100.00
2022-11-16T05:39:24.517Z,100.00
2022-11-16T05:41:51.361Z,100.00
2022-11-16T05:44:18.228Z,100.00
2022-11-16T05:46:45.688Z,100.00
2022-11-16T05:49:13.712Z,100.00
2022-11-16T05:51:41.866Z,100.00
2022-11-16T05:54:08.570Z,100.00
2022-11-16T05:56:35.501Z,100.00
2022-11-16T05:59:02.354Z,100.00
2022-11-16T06:01:29.227Z,100.00
2022-11-16T06:03:56.002Z,100.00
2022-11-16T06:06:22.598Z,100.00
2022-11-16T06:08:49.322Z,100.00
2022-11-16T06:11:15.938Z,100.00
2022-11-16T06:13:42.517Z,100.00
2022-11-16T06:16:09.567Z,100.00
2022-11-16T06:18:41.009Z,100.00
2022-11-16T06:21:08.676Z,100.00
2022-11-16T06:23:35.674Z,100.00
2022-11-16T06:26:02.859Z,100.00
2022-11-16T06:28:29.547Z,100.00
2022-11-16T06:30:56.265Z,100.00
2022-11-16T06:33:23.266Z,100.00
2022-11-16T06:35:49.840Z,99.93
2022-11-16T06:38:19.556Z,100.00
2022-11-16T06:40:55.310Z,100.00
2022-11-16T06:43:22.766Z,100.00
2022-11-16T06:45:51.951Z,100.00
2022-11-16T06:48:19.291Z,100.00
2022-11-16T06:50:48.158Z,100.00
2022-11-16T06:53:14.838Z,100.00
2022-11-16T06:55:41.424Z,100.00
2022-11-16T06:58:08.069Z,100.00
2022-11-16T07:00:34.858Z,100.00
2022-11-16T07:03:04.888Z,100.00
2022-11-16T07:05:32.317Z,100.00
2022-11-16T07:07:59.294Z,99.70
2022-11-16T07:10:26.305Z,98.92
2022-11-16T07:12:52.934Z,99.18
2022-11-16T07:15:19.652Z,97.84
2022-11-16T07:17:46.296Z,98.49
2022-11-16T07:20:13.219Z,97.07
2022-11-16T07:22:39.923Z,96.76
2022-11-16T07:25:07.190Z,98.61
2022-11-16T07:27:33.913Z,99.01
2022-11-16T07:30:02.210Z,98.15
2022-11-16T07:32:31.008Z,97.48
2022-11-16T07:34:59.455Z,97.61
2022-11-16T07:37:26.321Z,96.65
2022-11-16T07:39:53.145Z,97.32
2022-11-16T07:42:19.926Z,98.22
2022-11-16T07:44:46.497Z,97.93
2022-11-16T07:47:13.247Z,98.11
2022-11-16T07:49:39.870Z,97.30
2022-11-16T07:52:09.308Z,97.82
2022-11-16T07:54:36.589Z,96.26
2022-11-16T07:57:03.308Z,97.07
2022-11-16T07:59:29.913Z,97.30
2022-11-16T08:01:56.717Z,97.78
2022-11-16T08:04:23.507Z,97.26
2022-11-16T08:06:51.845Z,96.40
2022-11-16T08:09:18.758Z,96.36
2022-11-16T08:11:45.367Z,96.98
2022-11-16T08:14:11.951Z,96.52
2022-11-16T08:16:38.687Z,95.94
2022-11-16T08:19:05.362Z,95.14
2022-11-16T08:21:31.939Z,94.34
2022-11-16T08:23:59.110Z,94.63
2022-11-16T08:26:26.095Z,94.63
2022-11-16T08:28:53.994Z,94.29
2022-11-16T08:31:26.735Z,94.40
2022-11-16T08:33:53.966Z,93.73
2022-11-16T08:36:22.640Z,93.16
2022-11-16T08:38:50.656Z,92.58
2022-11-16T08:41:18.348Z,91.73
2022-11-16T08:43:47.337Z,91.36
2022-11-16T08:46:14.375Z,90.69
2022-11-16T08:48:41.956Z,89.31
2022-11-16T08:51:19.985Z,88.50
2022-11-16T08:53:49.050Z,87.70
2022-11-16T08:56:17.848Z,89.00
2022-11-16T08:58:47.036Z,88.33
2022-11-16T09:01:17.549Z,86.66
2022-11-16T09:03:44.731Z,85.35
2022-11-16T09:06:12.748Z,85.37
2022-11-16T09:08:41.804Z,84.41
2022-11-16T09:11:10.577Z,86.00
2022-11-16T09:16:22.380Z,86.59
2022-11-16T09:18:50.759Z,88.09
2022-11-16T09:21:22.235Z,87.54
2022-11-16T09:23:49.698Z,87.66
2022-11-16T09:26:19.118Z,85.88
2022-11-16T09:28:45.760Z,86.23
2022-11-16T09:31:12.361Z,85.67
2022-11-16T09:33:38.943Z,84.07
2022-11-16T09:36:08.560Z,79.69
2022-11-16T09:39:13.317Z,75.07
2022-11-16T09:41:34.084Z,68.87
2022-11-16T09:44:15.864Z,64.24
2022-11-16T09:46:49.728Z,64.59
2022-11-16T09:49:21.351Z,64.21
2022-11-16T09:51:53.070Z,65.80
2022-11-16T09:54:24.348Z,66.52
2022-11-16T09:56:57.238Z,67.02
2022-11-16T09:59:27.220Z,69.73
2022-11-16T10:02:15.208Z,73.30
2022-11-16T10:05:00.573Z,72.27
2022-11-16T10:07:41.612Z,71.93
2022-11-16T10:10:13.790Z,70.42
2022-11-16T10:12:54.910Z,67.34
2022-11-16T10:15:42.946Z,63.59
2022-11-16T10:18:35.091Z,64.18
2022-11-16T10:21:26.096Z,62.60
2022-11-16T10:24:17.402Z,61.82
2022-11-16T10:27:21.993Z,60.86
2022-11-16T10:30:00.937Z,55.74
2022-11-16T10:32:31.124Z,53.39
2022-11-16T10:35:06.204Z,51.33
2022-11-16T10:37:37.189Z,50.29
2022-11-16T10:40:21.112Z,49.91
2022-11-16T10:42:57.820Z,50.48
2022-11-16T10:45:32.737Z,49.38
2022-11-16T10:48:15.756Z,45.81
2022-11-16T10:50:51.745Z,43.68
2022-11-16T10:53:44.452Z,45.43
2022-11-16T10:56:28.149Z,46.05
2022-11-16T10:59:02.871Z,46.02
2022-11-16T11:01:29.427Z,43.19
2022-11-16T11:03:56.077Z,43.30
2022-11-16T11:06:26.025Z,41.96
2022-11-16T11:08:52.933Z,39.88
2022-11-16T11:11:40.631Z,38.13
2022-11-16T11:14:14.370Z,37.38
2022-11-16T11:16:41.938Z,39.41
2022-11-16T11:19:29.056Z,40.63
2022-11-16T11:22:05.061Z,41.06
2022-11-16T11:24:47.784Z,38.87
2022-11-16T11:27:23.180Z,37.92
2022-11-16T11:29:58.752Z,37.78
2022-11-16T11:32:33.031Z,38.65
2022-11-16T11:35:01.046Z,38.94
2022-11-16T11:37:33.134Z,38.22
2022-11-16T11:40:21.133Z,37.31
2022-11-16T11:43:01.097Z,35.66
2022-11-16T11:45:38.518Z,35.93
2022-11-16T11:48:25.094Z,37.92
2022-11-16T11:51:17.161Z,37.22
2022-11-16T11:53:56.409Z,41.13
2022-11-16T11:56:24.289Z,41.47
2022-11-16T11:58:51.995Z,43.79
2022-11-16T12:01:44.147Z,45.40
2022-11-16T12:04:29.033Z,48.30
2022-11-16T12:07:22.382Z,49.27
2022-11-16T12:10:10.531Z,53.05
2022-11-16T12:12:52.285Z,54.89
2022-11-16T12:15:46.594Z,57.37
2022-11-16T12:18:33.735Z,59.41
2022-11-16T12:21:13.896Z,58.15
2022-11-16T12:24:01.620Z,56.05
2022-11-16T12:26:47.098Z,57.00
2022-11-16T12:29:52.971Z,56.80
2022-11-16T12:32:50.263Z,57.52
2022-11-16T12:35:28.774Z,54.77
2022-11-16T12:38:13.980Z,49.23
2022-11-16T12:41:05.100Z,47.58
2022-11-16T12:43:56.575Z,45.13
2022-11-16T12:46:55.481Z,42.09
2022-11-16T12:49:39.391Z,41.45
2022-11-16T12:52:43.018Z,43.86
2022-11-16T12:55:26.381Z,43.88
2022-11-16T12:58:12.035Z,42.69
2022-11-16T13:00:53.814Z,44.39
2022-11-16T13:03:26.779Z,44.37
2022-11-16T13:05:59.067Z,43.24
2022-11-16T13:08:40.935Z,44.45
2022-11-16T13:11:27.893Z,47.86
2022-11-16T13:14:01.570Z,47.55
2022-11-16T13:16:29.217Z,47.01
2022-11-16T13:18:56.698Z,48.18
2022-11-16T13:21:40.570Z,49.43
2022-11-16T13:24:22.376Z,50.48
2022-11-16T13:27:10.893Z,51.46
2022-11-16T13:29:44.363Z,50.21
2022-11-16T13:32:44.371Z,51.24
2022-11-16T13:35:16.705Z,52.29
2022-11-16T13:37:51.992Z,54.07
2022-11-16T13:40:27.673Z,56.03
2022-11-16T13:43:09.595Z,56.22
2022-11-16T13:45:41.094Z,57.02
2022-11-16T13:48:34.456Z,58.32
2022-11-16T13:51:08.010Z,58.77
2022-11-16T13:56:57.547Z,61.90
2022-11-16T13:59:27.758Z,62.83
2022-11-16T14:01:57.593Z,63.57
2022-11-16T14:04:42.445Z,64.16
2022-11-16T14:07:40.526Z,65.20
2022-11-16T14:10:08.052Z,66.07
2022-11-16T14:12:37.791Z,66.93
2022-11-16T14:15:23.368Z,67.83
2022-11-16T14:17:49.863Z,68.31
2022-11-16T14:20:50.060Z,69.69
2022-11-16T14:23:55.488Z,71.62
2022-11-16T14:26:31.385Z,73.24
2022-11-16T14:29:15.978Z,73.79
2022-11-16T14:31:51.247Z,74.24
2022-11-16T14:34:22.302Z,74.98
2022-11-16T14:36:49.899Z,76.10
2022-11-16T14:39:40.062Z,76.87
2022-11-16T14:42:48.178Z,77.50
2022-11-16T14:45:30.570Z,78.40
2022-11-16T14:48:15.637Z,78.59
2022-11-16T14:50:45.858Z,78.87
2022-11-16T14:53:19.214Z,79.64
2022-11-16T14:55:46.297Z,80.03
2022-11-16T14:58:18.746Z,80.65
2022-11-16T15:00:58.492Z,81.23
2022-11-16T15:03:28.199Z,81.55
2022-11-16T15:06:00.834Z,81.93
2022-11-16T15:08:38.620Z,82.23
2022-11-16T15:11:10.401Z,83.38
2022-11-16T15:13:37.377Z,83.83
2022-11-16T15:16:20.207Z,84.45
2022-11-16T15:19:00.597Z,86.27
2022-11-16T15:21:28.061Z,86.35
2022-11-16T15:24:23.542Z,85.60
2022-11-16T15:26:41.281Z,85.78
2022-11-16T15:29:16.149Z,86.53
2022-11-16T15:31:43.249Z,85.89
2022-11-16T15:34:17.326Z,85.97
2022-11-16T15:36:44.302Z,86.42
2022-11-16T15:39:20.586Z,86.40
2022-11-16T15:41:47.680Z,86.11
2022-11-16T15:44:17.308Z,86.18
2022-11-16T15:46:50.154Z,86.59
2022-11-16T15:49:24.973Z,86.21
2022-11-16T15:51:51.576Z,86.36
2022-11-16T15:54:29.078Z,86.85
2022-11-16T15:57:03.855Z,87.42
2022-11-16T15:59:33.308Z,87.44
2022-11-16T16:02:00.296Z,87.41
2022-11-16T16:04:28.893Z,87.23
2022-11-16T16:06:58.129Z,87.07
2022-11-16T16:09:30.727Z,86.87
2022-11-16T16:12:17.620Z,86.91
2022-11-16T16:14:44.904Z,87.48
2022-11-16T16:17:21.428Z,87.71
2022-11-16T16:19:58.252Z,88.09
2022-11-16T16:22:32.130Z,87.94
2022-11-16T16:24:59.440Z,88.02
2022-11-16T16:27:29.398Z,87.92
2022-11-16T16:29:58.477Z,88.07
2022-11-16T16:32:27.912Z,88.19
2022-11-16T16:34:56.358Z,88.23
2022-11-16T16:37:25.315Z,87.71
2022-11-16T16:39:51.865Z,87.78
2022-11-16T16:42:18.624Z,87.60
2022-11-16T16:44:47.120Z,87.51
2022-11-16T16:47:16.504Z,87.23
2022-11-16T16:49:43.550Z,87.57
2022-11-16T16:52:12.414Z,87.64
2022-11-16T16:54:39.501Z,88.13
2022-11-16T16:57:06.206Z,88.27
2022-11-16T16:59:32.837Z,88.17
2022-11-16T17:01:59.867Z,88.65
2022-11-16T17:04:26.642Z,88.50
2022-11-16T17:06:54.128Z,88.24
2022-11-16T17:09:21.087Z,88.42
2022-11-16T17:11:48.318Z,88.31
2022-11-16T17:14:15.005Z,88.54
2022-11-16T17:16:41.682Z,89.00
2022-11-16T17:19:08.278Z,89.28
2022-11-16T17:21:34.811Z,89.82
2022-11-16T17:24:01.498Z,89.92
2022-11-16T17:26:29.185Z,89.77
2022-11-16T17:28:57.211Z,90.06
2022-11-16T17:31:24.658Z,90.25
2022-11-16T17:33:51.682Z,90.36
2022-11-16T17:36:18.734Z,90.41
2022-11-16T17:38:45.448Z,90.99
2022-11-16T17:41:21.596Z,90.86
2022-11-16T17:43:48.562Z,91.28
2022-11-16T17:46:17.824Z,91.58
2022-11-16T17:48:47.164Z,91.65
2022-11-16T17:51:16.814Z,91.72
2022-11-16T17:53:44.351Z,92.26
2022-11-16T17:56:12.511Z,92.57
2022-11-16T17:58:39.379Z,92.94
2022-11-16T18:01:06.260Z,93.22
2022-11-16T18:03:36.229Z,94.08
2022-11-16T18:06:13.280Z,94.15
2022-11-16T18:08:41.180Z,93.97
2022-11-16T18:11:28.323Z,94.22
2022-11-16T18:14:00.674Z,94.90
2022-11-16T18:16:32.589Z,94.36
2022-11-16T18:19:05.109Z,94.64
2022-11-16T18:21:37.820Z,94.64
2022-11-16T18:24:04.560Z,94.90
2022-11-16T18:26:31.141Z,94.86
2022-11-16T18:28:57.820Z,95.00
2022-11-16T18:31:25.484Z,94.93
2022-11-16T18:33:52.248Z,95.22
2022-11-16T18:36:20.448Z,94.98
2022-11-16T18:38:47.713Z,95.15
2022-11-16T18:41:19.788Z,95.47
2022-11-16T18:43:53.452Z,95.69
2022-11-16T18:46:21.585Z,95.50
2022-11-16T18:48:48.429Z,95.68
2022-11-16T18:51:16.508Z,95.41
2022-11-16T18:53:43.270Z,95.76
2022-11-16T18:56:11.898Z,95.75
2022-11-16T18:58:54.657Z,96.29
2022-11-16T19:01:23.964Z,96.70
2022-11-16T19:03:51.958Z,96.90
2022-11-16T19:06:18.968Z,96.46
2022-11-16T19:08:50.418Z,96.59
2022-11-16T19:11:20.642Z,96.60
2022-11-16T19:13:53.114Z,96.39
2022-11-16T19:16:19.786Z,96.59
2022-11-16T19:18:46.364Z,96.91
2022-11-16T19:21:15.423Z,97.06
2022-11-16T19:23:47.137Z,97.23
2022-11-16T19:26:15.375Z,97.32
2022-11-16T19:28:44.149Z,97.71
2022-11-16T19:31:12.231Z,97.93
2022-11-16T19:33:39.201Z,97.88
2022-11-16T19:36:16.965Z,98.04
2022-11-16T19:38:45.245Z,97.85
2022-11-16T19:41:13.031Z,97.57
2022-11-16T19:43:39.652Z,97.70
2022-11-16T19:46:08.843Z,97.73
2022-11-16T19:48:36.228Z,98.04
2022-11-16T19:51:10.690Z,98.44
2022-11-16T19:53:38.575Z,98.78
2022-11-16T19:56:07.018Z,98.90
2022-11-16T19:58:39.486Z,98.88
2022-11-16T20:01:14.834Z,98.47
2022-11-16T20:03:42.277Z,98.89
2022-11-16T20:06:14.142Z,98.86
2022-11-16T20:08:42.594Z,98.80
2022-11-16T20:11:23.421Z,98.82
2022-11-16T20:13:52.084Z,98.75
2022-11-16T20:16:22.202Z,99.24
2022-11-16T20:18:50.960Z,99.22
2022-11-16T20:21:33.036Z,99.31
2022-11-16T20:24:06.143Z,99.47
2022-11-16T20:26:35.039Z,99.68
2022-11-16T20:29:01.635Z,99.68
2022-11-16T20:31:33.546Z,99.55
2022-11-16T20:34:05.410Z,100.00
2022-11-16T20:36:33.574Z,100.00
2022-11-16T20:39:01.154Z,100.00
2022-11-16T20:41:30.538Z,100.00
2022-11-16T20:43:59.302Z,99.94
2022-11-16T20:46:28.430Z,100.00
2022-11-16T20:48:57.199Z,100.00
2022-11-16T20:51:24.055Z,100.00
2022-11-16T20:53:52.005Z,100.00
2022-11-16T20:56:19.936Z,100.00
2022-11-16T20:58:48.049Z,100.00
2022-11-16T21:01:28.838Z,100.00
2022-11-16T21:03:56.590Z,100.00
2022-11-16T21:06:23.261Z,100.00
2022-11-16T21:08:49.954Z,100.00
2022-11-16T21:11:25.464Z,100.00
2022-11-16T21:14:10.838Z,100.00
2022-11-16T21:16:38.073Z,100.00
2022-11-16T21:19:05.577Z,100.00
2022-11-16T21:21:32.320Z,100.00
2022-11-16T21:23:59.697Z,100.00
2022-11-16T21:26:31.014Z,99.93
2022-11-16T21:28:59.037Z,100.00
2022-11-16T21:31:29.725Z,100.00
2022-11-16T21:33:56.968Z,100.00
2022-11-16T21:36:25.864Z,100.00
2022-11-16T21:38:53.100Z,100.00
2022-11-16T21:41:21.409Z,100.00
2022-11-16T21:43:48.308Z,100.00
2022-11-16T21:46:20.728Z,100.00
2022-11-16T21:48:48.193Z,99.90
2022-11-16T21:51:16.817Z,100.00
2022-11-16T21:53:44.055Z,100.00
2022-11-16T21:56:16.468Z,100.00
2022-11-16T21:58:43.405Z,100.00
2022-11-16T22:01:11.399Z,100.00
2022-11-16T22:03:38.506Z,100.00
2022-11-16T22:06:26.182Z,100.00
2022-11-16T22:08:52.904Z,100.00
2022-11-16T22:11:22.147Z,100.00
2022-11-16T22:13:49.836Z,100.00
2022-11-16T22:16:18.392Z,100.00
2022-11-16T22:18:44.939Z,100.00
2022-11-16T22:21:11.910Z,100.00
2022-11-16T22:23:39.036Z,100.00
2022-11-16T22:26:13.551Z,100.00
2022-11-16T22:28:40.505Z,100.00
2022-11-16T22:31:10.776Z,100.00
2022-11-16T22:33:37.858Z,100.00
2022-11-16T22:36:05.791Z,100.00
2022-11-16T22:38:33.608Z,100.00
2022-11-16T22:41:00.185Z,100.00
2022-11-16T22:43:28.650Z,100.00
2022-11-16T22:45:59.083Z,100.00
2022-11-16T22:48:44.970Z,100.00
2022-11-16T22:51:20.712Z,100.00
2022-11-16T22:53:47.423Z,100.00
2022-11-16T22:56:14.074Z,100.00
2022-11-16T22:58:40.887Z,100.00
2022-11-16T23:01:09.129Z,100.00
2022-11-16T23:03:36.974Z,100.00
2022-11-16T23:06:04.955Z,100.00
2022-11-16T23:08:32.121Z,100.00
2022-11-16T23:11:31.108Z,100.00
2022-11-16T23:14:17.076Z,100.00
2022-11-16T23:16:44.149Z,100.00
2022-11-16T23:19:31.311Z,100.00
2022-11-16T23:22:27.358Z,100.00
2022-11-16T23:25:12.764Z,100.00
2022-11-16T23:27:49.509Z,100.00
2022-11-16T23:30:16.186Z,100.00
2022-11-16T23:32:42.890Z,100.00
2022-11-16T23:35:10.248Z,100.00
2022-11-16T23:37:52.957Z,100.00
2022-11-16T23:40:20.300Z,100.00
2022-11-16T23:43:05.299Z,100.00
2022-11-16T23:45:31.920Z,100.00
2022-11-16T23:47:58.608Z,100.00
2022-11-16T23:50:25.355Z,100.00
2022-11-16T23:52:51.946Z,100.00
2022-11-16T23:55:18.596Z,100.00
2022-11-16T23:57:45.146Z,100.00
